sensor_id;sensor_type;location;lat;lon;timestamp;P1;durP1;ratioP1;P2;durP2;ratioP2
52320;SDS011;38261;54.090;13.382;2023-09-07T00:00:17;21.67;;;12.60;;
52320;SDS011;38261;54.090;13.382;2023-09-07T00:01:40;23.50;;;12.60;;
52320;SDS011;38261;54.090;13.382;2023-09-07T00:03:02;15.53;;;11.63;;
52320;SDS011;38261;54.090;13.382;2023-09-07T00:04:26;15.20;;;12.07;;
52320;SDS011;38261;54.090;13.382;2023-09-07T00:05:49;18.77;;;12.27;;
52320;SDS011;38261;54.090;13.382;2023-09-07T00:07:11;18.30;;;12.00;;
52320;SDS011;38261;54.090;13.382;2023-09-07T00:08:34;17.70;;;11.90;;
52320;SDS011;38261;54.090;13.382;2023-09-07T00:09:56;18.83;;;12.03;;
52320;SDS011;38261;54.090;13.382;2023-09-07T00:11:19;17.03;;;12.40;;
52320;SDS011;38261;54.090;13.382;2023-09-07T00:12:42;16.40;;;12.20;;
52320;SDS011;38261;54.090;13.382;2023-09-07T00:14:04;17.57;;;12.30;;
52320;SDS011;38261;54.090;13.382;2023-09-07T00:15:29;15.50;;;11.80;;
52320;SDS011;38261;54.090;13.382;2023-09-07T00:16:52;22.57;;;11.83;;
52320;SDS011;38261;54.090;13.382;2023-09-07T00:18:15;18.00;;;11.63;;
52320;SDS011;38261;54.090;13.382;2023-09-07T00:19:46;21.43;;;12.70;;
52320;SDS011;38261;54.090;13.382;2023-09-07T00:21:12;20.87;;;11.80;;
52320;SDS011;38261;54.090;13.382;2023-09-07T00:22:35;19.77;;;13.23;;
52320;SDS011;38261;54.090;13.382;2023-09-07T00:25:29;18.13;;;13.33;;
52320;SDS011;38261;54.090;13.382;2023-09-07T00:26:51;21.80;;;13.07;;
52320;SDS011;38261;54.090;13.382;2023-09-07T00:28:14;24.40;;;13.60;;
52320;SDS011;38261;54.090;13.382;2023-09-07T00:29:39;16.90;;;13.17;;
52320;SDS011;38261;54.090;13.382;2023-09-07T00:31:02;18.27;;;13.33;;
52320;SDS011;38261;54.090;13.382;2023-09-07T00:32:25;21.90;;;14.17;;
52320;SDS011;38261;54.090;13.382;2023-09-07T00:33:47;22.87;;;13.93;;
52320;SDS011;38261;54.090;13.382;2023-09-07T00:35:10;21.57;;;14.37;;
52320;SDS011;38261;54.090;13.382;2023-09-07T00:36:32;22.10;;;13.97;;
52320;SDS011;38261;54.090;13.382;2023-09-07T00:37:55;20.40;;;14.33;;
52320;SDS011;38261;54.090;13.382;2023-09-07T00:39:17;19.63;;;13.40;;
52320;SDS011;38261;54.090;13.382;2023-09-07T00:40:42;19.27;;;13.77;;
52320;SDS011;38261;54.090;13.382;2023-09-07T00:42:05;28.50;;;14.83;;
52320;SDS011;38261;54.090;13.382;2023-09-07T00:43:28;22.50;;;15.40;;
52320;SDS011;38261;54.090;13.382;2023-09-07T00:44:51;25.50;;;16.20;;
52320;SDS011;38261;54.090;13.382;2023-09-07T00:46:14;21.93;;;15.57;;
52320;SDS011;38261;54.090;13.382;2023-09-07T00:47:37;34.10;;;16.70;;
52320;SDS011;38261;54.090;13.382;2023-09-07T00:48:59;19.60;;;13.10;;
52320;SDS011;38261;54.090;13.382;2023-09-07T00:50:22;20.67;;;14.37;;
52320;SDS011;38261;54.090;13.382;2023-09-07T00:51:45;25.20;;;15.10;;
52320;SDS011;38261;54.090;13.382;2023-09-07T00:53:07;25.67;;;15.77;;
52320;SDS011;38261;54.090;13.382;2023-09-07T00:54:30;22.10;;;15.90;;
52320;SDS011;38261;54.090;13.382;2023-09-07T00:55:53;22.80;;;14.77;;
52320;SDS011;38261;54.090;13.382;2023-09-07T00:57:17;23.67;;;14.70;;
52320;SDS011;38261;54.090;13.382;2023-09-07T00:58:40;23.30;;;15.23;;
52320;SDS011;38261;54.090;13.382;2023-09-07T01:00:03;19.03;;;13.20;;
52320;SDS011;38261;54.090;13.382;2023-09-07T01:01:28;22.57;;;13.40;;
52320;SDS011;38261;54.090;13.382;2023-09-07T01:02:52;21.93;;;14.67;;
52320;SDS011;38261;54.090;13.382;2023-09-07T01:04:15;21.60;;;14.03;;
52320;SDS011;38261;54.090;13.382;2023-09-07T01:05:41;17.63;;;12.60;;
52320;SDS011;38261;54.090;13.382;2023-09-07T01:07:32;21.43;;;13.13;;
52320;SDS011;38261;54.090;13.382;2023-09-07T01:08:49;19.20;;;14.10;;
52320;SDS011;38261;54.090;13.382;2023-09-07T01:10:18;24.30;;;13.87;;
52320;SDS011;38261;54.090;13.382;2023-09-07T01:11:42;21.20;;;13.60;;
52320;SDS011;38261;54.090;13.382;2023-09-07T01:13:05;21.87;;;14.27;;
52320;SDS011;38261;54.090;13.382;2023-09-07T01:14:28;15.80;;;12.03;;
52320;SDS011;38261;54.090;13.382;2023-09-07T01:15:50;21.17;;;13.80;;
52320;SDS011;38261;54.090;13.382;2023-09-07T01:17:13;21.53;;;13.00;;
52320;SDS011;38261;54.090;13.382;2023-09-07T01:18:37;21.60;;;13.33;;
52320;SDS011;38261;54.090;13.382;2023-09-07T01:20:01;21.43;;;13.40;;
52320;SDS011;38261;54.090;13.382;2023-09-07T01:21:32;18.30;;;12.83;;
52320;SDS011;38261;54.090;13.382;2023-09-07T01:22:57;26.33;;;14.40;;
52320;SDS011;38261;54.090;13.382;2023-09-07T01:24:20;21.73;;;13.20;;
52320;SDS011;38261;54.090;13.382;2023-09-07T01:25:43;20.27;;;13.90;;
52320;SDS011;38261;54.090;13.382;2023-09-07T01:27:05;17.13;;;12.93;;
52320;SDS011;38261;54.090;13.382;2023-09-07T01:28:28;26.57;;;13.70;;
52320;SDS011;38261;54.090;13.382;2023-09-07T01:29:51;22.60;;;12.37;;
52320;SDS011;38261;54.090;13.382;2023-09-07T01:31:14;18.40;;;12.47;;
52320;SDS011;38261;54.090;13.382;2023-09-07T01:32:37;17.00;;;12.87;;
52320;SDS011;38261;54.090;13.382;2023-09-07T01:33:59;20.30;;;13.37;;
52320;SDS011;38261;54.090;13.382;2023-09-07T01:35:22;23.03;;;13.30;;
52320;SDS011;38261;54.090;13.382;2023-09-07T01:36:46;23.43;;;13.03;;
52320;SDS011;38261;54.090;13.382;2023-09-07T01:38:08;18.40;;;12.60;;
52320;SDS011;38261;54.090;13.382;2023-09-07T01:39:31;22.67;;;13.20;;
52320;SDS011;38261;54.090;13.382;2023-09-07T01:40:53;22.40;;;14.20;;
52320;SDS011;38261;54.090;13.382;2023-09-07T01:42:16;19.40;;;13.83;;
52320;SDS011;38261;54.090;13.382;2023-09-07T01:43:38;20.90;;;14.10;;
52320;SDS011;38261;54.090;13.382;2023-09-07T01:45:01;20.07;;;12.40;;
52320;SDS011;38261;54.090;13.382;2023-09-07T01:46:23;23.17;;;14.93;;
52320;SDS011;38261;54.090;13.382;2023-09-07T01:47:46;25.07;;;13.80;;
52320;SDS011;38261;54.090;13.382;2023-09-07T01:49:09;21.80;;;13.40;;
52320;SDS011;38261;54.090;13.382;2023-09-07T01:50:31;24.30;;;14.00;;
52320;SDS011;38261;54.090;13.382;2023-09-07T01:51:54;22.30;;;14.17;;
52320;SDS011;38261;54.090;13.382;2023-09-07T01:53:16;20.00;;;12.80;;
52320;SDS011;38261;54.090;13.382;2023-09-07T01:54:39;18.53;;;11.97;;
52320;SDS011;38261;54.090;13.382;2023-09-07T01:56:01;17.27;;;13.37;;
52320;SDS011;38261;54.090;13.382;2023-09-07T01:57:24;21.23;;;12.13;;
52320;SDS011;38261;54.090;13.382;2023-09-07T01:58:47;22.73;;;14.40;;
52320;SDS011;38261;54.090;13.382;2023-09-07T02:00:10;18.40;;;12.60;;
52320;SDS011;38261;54.090;13.382;2023-09-07T02:01:33;20.00;;;13.70;;
52320;SDS011;38261;54.090;13.382;2023-09-07T02:02:58;20.43;;;12.73;;
52320;SDS011;38261;54.090;13.382;2023-09-07T02:04:21;24.93;;;13.20;;
52320;SDS011;38261;54.090;13.382;2023-09-07T02:05:46;19.20;;;12.53;;
52320;SDS011;38261;54.090;13.382;2023-09-07T02:07:09;20.43;;;12.50;;
52320;SDS011;38261;54.090;13.382;2023-09-07T02:08:31;18.17;;;13.43;;
52320;SDS011;38261;54.090;13.382;2023-09-07T02:09:53;19.57;;;13.47;;
52320;SDS011;38261;54.090;13.382;2023-09-07T02:11:16;22.87;;;13.37;;
52320;SDS011;38261;54.090;13.382;2023-09-07T02:12:38;28.33;;;13.87;;
52320;SDS011;38261;54.090;13.382;2023-09-07T02:14:01;27.77;;;13.33;;
52320;SDS011;38261;54.090;13.382;2023-09-07T02:15:24;21.63;;;14.13;;
52320;SDS011;38261;54.090;13.382;2023-09-07T02:16:47;21.30;;;13.27;;
52320;SDS011;38261;54.090;13.382;2023-09-07T02:18:09;18.43;;;12.70;;
52320;SDS011;38261;54.090;13.382;2023-09-07T02:19:32;30.73;;;12.80;;
52320;SDS011;38261;54.090;13.382;2023-09-07T02:20:54;21.63;;;13.30;;
52320;SDS011;38261;54.090;13.382;2023-09-07T02:22:17;22.67;;;12.63;;
52320;SDS011;38261;54.090;13.382;2023-09-07T02:23:39;17.47;;;13.03;;
52320;SDS011;38261;54.090;13.382;2023-09-07T02:25:02;19.53;;;13.07;;
52320;SDS011;38261;54.090;13.382;2023-09-07T02:26:27;21.90;;;13.40;;
52320;SDS011;38261;54.090;13.382;2023-09-07T02:27:49;20.70;;;13.60;;
52320;SDS011;38261;54.090;13.382;2023-09-07T02:29:12;19.90;;;14.33;;
52320;SDS011;38261;54.090;13.382;2023-09-07T02:30:35;17.87;;;12.97;;
52320;SDS011;38261;54.090;13.382;2023-09-07T02:31:58;17.50;;;12.80;;
52320;SDS011;38261;54.090;13.382;2023-09-07T02:33:20;19.80;;;11.80;;
52320;SDS011;38261;54.090;13.382;2023-09-07T02:34:42;29.10;;;13.77;;
52320;SDS011;38261;54.090;13.382;2023-09-07T02:36:05;21.30;;;13.40;;
52320;SDS011;38261;54.090;13.382;2023-09-07T02:37:27;23.90;;;14.80;;
52320;SDS011;38261;54.090;13.382;2023-09-07T02:38:50;19.30;;;13.50;;
52320;SDS011;38261;54.090;13.382;2023-09-07T02:40:12;25.80;;;13.47;;
52320;SDS011;38261;54.090;13.382;2023-09-07T02:41:37;17.00;;;12.70;;
52320;SDS011;38261;54.090;13.382;2023-09-07T02:43:00;22.30;;;14.53;;
52320;SDS011;38261;54.090;13.382;2023-09-07T02:44:22;22.90;;;13.30;;
52320;SDS011;38261;54.090;13.382;2023-09-07T02:45:45;20.63;;;14.30;;
52320;SDS011;38261;54.090;13.382;2023-09-07T02:47:07;22.07;;;14.63;;
52320;SDS011;38261;54.090;13.382;2023-09-07T02:48:33;22.27;;;14.13;;
52320;SDS011;38261;54.090;13.382;2023-09-07T02:49:56;22.73;;;15.20;;
52320;SDS011;38261;54.090;13.382;2023-09-07T02:51:19;21.70;;;15.17;;
52320;SDS011;38261;54.090;13.382;2023-09-07T02:52:41;21.97;;;15.00;;
52320;SDS011;38261;54.090;13.382;2023-09-07T02:54:04;22.77;;;15.07;;
52320;SDS011;38261;54.090;13.382;2023-09-07T02:55:27;25.03;;;16.63;;
52320;SDS011;38261;54.090;13.382;2023-09-07T02:56:49;26.47;;;16.33;;
52320;SDS011;38261;54.090;13.382;2023-09-07T02:58:12;25.97;;;17.13;;
52320;SDS011;38261;54.090;13.382;2023-09-07T02:59:35;30.33;;;18.10;;
52320;SDS011;38261;54.090;13.382;2023-09-07T03:00:57;28.63;;;18.40;;
52320;SDS011;38261;54.090;13.382;2023-09-07T03:02:20;30.77;;;18.27;;
52320;SDS011;38261;54.090;13.382;2023-09-07T03:03:42;25.33;;;17.43;;
52320;SDS011;38261;54.090;13.382;2023-09-07T03:05:05;33.30;;;18.80;;
52320;SDS011;38261;54.090;13.382;2023-09-07T03:06:28;29.67;;;17.50;;
52320;SDS011;38261;54.090;13.382;2023-09-07T03:07:50;28.50;;;18.20;;
52320;SDS011;38261;54.090;13.382;2023-09-07T03:09:13;30.70;;;18.53;;
52320;SDS011;38261;54.090;13.382;2023-09-07T03:10:36;29.97;;;18.43;;
52320;SDS011;38261;54.090;13.382;2023-09-07T03:12:02;29.33;;;17.17;;
52320;SDS011;38261;54.090;13.382;2023-09-07T03:13:25;26.13;;;17.50;;
52320;SDS011;38261;54.090;13.382;2023-09-07T03:14:48;34.20;;;17.53;;
52320;SDS011;38261;54.090;13.382;2023-09-07T03:16:12;26.53;;;17.70;;
52320;SDS011;38261;54.090;13.382;2023-09-07T03:17:34;28.83;;;17.70;;
52320;SDS011;38261;54.090;13.382;2023-09-07T03:18:57;31.33;;;18.57;;
52320;SDS011;38261;54.090;13.382;2023-09-07T03:20:20;26.60;;;17.43;;
52320;SDS011;38261;54.090;13.382;2023-09-07T03:21:42;32.07;;;17.97;;
52320;SDS011;38261;54.090;13.382;2023-09-07T03:23:05;30.17;;;16.63;;
52320;SDS011;38261;54.090;13.382;2023-09-07T03:24:27;24.90;;;17.07;;
52320;SDS011;38261;54.090;13.382;2023-09-07T03:25:50;25.73;;;16.50;;
52320;SDS011;38261;54.090;13.382;2023-09-07T03:27:13;27.00;;;17.30;;
52320;SDS011;38261;54.090;13.382;2023-09-07T03:28:35;23.93;;;17.00;;
52320;SDS011;38261;54.090;13.382;2023-09-07T03:29:58;25.53;;;17.30;;
52320;SDS011;38261;54.090;13.382;2023-09-07T03:31:20;30.10;;;17.17;;
52320;SDS011;38261;54.090;13.382;2023-09-07T03:32:43;20.90;;;16.17;;
52320;SDS011;38261;54.090;13.382;2023-09-07T03:34:06;24.00;;;17.43;;
52320;SDS011;38261;54.090;13.382;2023-09-07T03:35:28;28.00;;;16.20;;
52320;SDS011;38261;54.090;13.382;2023-09-07T03:36:51;20.47;;;15.73;;
52320;SDS011;38261;54.090;13.382;2023-09-07T03:38:13;21.20;;;15.40;;
52320;SDS011;38261;54.090;13.382;2023-09-07T03:39:36;24.80;;;15.47;;
52320;SDS011;38261;54.090;13.382;2023-09-07T03:40:58;23.70;;;15.30;;
52320;SDS011;38261;54.090;13.382;2023-09-07T03:42:21;21.97;;;14.70;;
52320;SDS011;38261;54.090;13.382;2023-09-07T03:43:43;27.87;;;16.53;;
52320;SDS011;38261;54.090;13.382;2023-09-07T03:45:06;24.50;;;16.77;;
52320;SDS011;38261;54.090;13.382;2023-09-07T03:46:29;23.80;;;15.90;;
52320;SDS011;38261;54.090;13.382;2023-09-07T03:47:52;21.50;;;15.70;;
52320;SDS011;38261;54.090;13.382;2023-09-07T03:49:14;24.10;;;14.80;;
52320;SDS011;38261;54.090;13.382;2023-09-07T03:50:37;21.50;;;14.50;;
52320;SDS011;38261;54.090;13.382;2023-09-07T03:51:59;22.17;;;14.50;;
52320;SDS011;38261;54.090;13.382;2023-09-07T03:53:22;23.50;;;15.87;;
52320;SDS011;38261;54.090;13.382;2023-09-07T03:54:44;22.57;;;14.10;;
52320;SDS011;38261;54.090;13.382;2023-09-07T03:56:07;20.93;;;14.60;;
52320;SDS011;38261;54.090;13.382;2023-09-07T03:57:29;24.60;;;16.53;;
52320;SDS011;38261;54.090;13.382;2023-09-07T03:58:52;24.17;;;14.60;;
52320;SDS011;38261;54.090;13.382;2023-09-07T04:00:14;24.23;;;15.43;;
52320;SDS011;38261;54.090;13.382;2023-09-07T04:01:37;19.50;;;15.40;;
52320;SDS011;38261;54.090;13.382;2023-09-07T04:03:00;27.70;;;14.90;;
52320;SDS011;38261;54.090;13.382;2023-09-07T04:04:23;20.30;;;14.87;;
52320;SDS011;38261;54.090;13.382;2023-09-07T04:05:45;23.37;;;14.70;;
52320;SDS011;38261;54.090;13.382;2023-09-07T04:07:08;24.20;;;15.30;;
52320;SDS011;38261;54.090;13.382;2023-09-07T04:08:30;23.60;;;15.33;;
52320;SDS011;38261;54.090;13.382;2023-09-07T04:09:53;21.10;;;14.93;;
52320;SDS011;38261;54.090;13.382;2023-09-07T04:11:16;22.00;;;14.47;;
52320;SDS011;38261;54.090;13.382;2023-09-07T04:12:38;20.80;;;14.77;;
52320;SDS011;38261;54.090;13.382;2023-09-07T04:14:01;21.90;;;13.83;;
52320;SDS011;38261;54.090;13.382;2023-09-07T04:15:23;21.87;;;14.70;;
52320;SDS011;38261;54.090;13.382;2023-09-07T04:16:47;19.60;;;14.47;;
52320;SDS011;38261;54.090;13.382;2023-09-07T04:18:12;23.03;;;15.13;;
52320;SDS011;38261;54.090;13.382;2023-09-07T04:19:36;20.50;;;15.00;;
52320;SDS011;38261;54.090;13.382;2023-09-07T04:21:06;22.03;;;15.33;;
52320;SDS011;38261;54.090;13.382;2023-09-07T04:22:29;26.93;;;15.73;;
52320;SDS011;38261;54.090;13.382;2023-09-07T04:23:51;26.83;;;16.40;;
52320;SDS011;38261;54.090;13.382;2023-09-07T04:25:14;23.33;;;15.67;;
52320;SDS011;38261;54.090;13.382;2023-09-07T04:26:37;22.97;;;14.90;;
52320;SDS011;38261;54.090;13.382;2023-09-07T04:27:59;21.33;;;16.03;;
52320;SDS011;38261;54.090;13.382;2023-09-07T04:29:22;24.00;;;15.97;;
52320;SDS011;38261;54.090;13.382;2023-09-07T04:30:44;23.60;;;16.67;;
52320;SDS011;38261;54.090;13.382;2023-09-07T04:32:07;29.07;;;16.07;;
52320;SDS011;38261;54.090;13.382;2023-09-07T04:33:30;20.57;;;15.90;;
52320;SDS011;38261;54.090;13.382;2023-09-07T04:34:56;23.93;;;15.60;;
52320;SDS011;38261;54.090;13.382;2023-09-07T04:36:20;26.73;;;16.27;;
52320;SDS011;38261;54.090;13.382;2023-09-07T04:37:43;28.23;;;18.03;;
52320;SDS011;38261;54.090;13.382;2023-09-07T04:39:06;23.63;;;15.70;;
52320;SDS011;38261;54.090;13.382;2023-09-07T04:40:28;20.40;;;14.90;;
52320;SDS011;38261;54.090;13.382;2023-09-07T04:41:51;21.10;;;14.50;;
52320;SDS011;38261;54.090;13.382;2023-09-07T04:43:14;21.63;;;14.80;;
52320;SDS011;38261;54.090;13.382;2023-09-07T04:44:36;23.70;;;15.53;;
52320;SDS011;38261;54.090;13.382;2023-09-07T04:45:59;23.80;;;15.10;;
52320;SDS011;38261;54.090;13.382;2023-09-07T04:47:21;22.60;;;14.97;;
52320;SDS011;38261;54.090;13.382;2023-09-07T04:48:44;21.53;;;15.20;;
52320;SDS011;38261;54.090;13.382;2023-09-07T04:50:07;22.83;;;14.50;;
52320;SDS011;38261;54.090;13.382;2023-09-07T04:51:29;19.73;;;14.40;;
52320;SDS011;38261;54.090;13.382;2023-09-07T04:52:52;18.67;;;12.83;;
52320;SDS011;38261;54.090;13.382;2023-09-07T04:54:15;21.37;;;14.20;;
52320;SDS011;38261;54.090;13.382;2023-09-07T04:55:37;21.40;;;13.00;;
52320;SDS011;38261;54.090;13.382;2023-09-07T04:57:00;24.00;;;13.60;;
52320;SDS011;38261;54.090;13.382;2023-09-07T04:58:23;18.87;;;13.93;;
52320;SDS011;38261;54.090;13.382;2023-09-07T04:59:45;18.97;;;14.17;;
52320;SDS011;38261;54.090;13.382;2023-09-07T05:01:10;20.03;;;12.90;;
52320;SDS011;38261;54.090;13.382;2023-09-07T05:02:33;18.93;;;13.17;;
52320;SDS011;38261;54.090;13.382;2023-09-07T05:04:00;20.00;;;12.73;;
52320;SDS011;38261;54.090;13.382;2023-09-07T05:05:25;20.27;;;14.20;;
52320;SDS011;38261;54.090;13.382;2023-09-07T05:06:47;19.90;;;12.60;;
52320;SDS011;38261;54.090;13.382;2023-09-07T05:08:10;18.07;;;12.63;;
52320;SDS011;38261;54.090;13.382;2023-09-07T05:09:33;20.27;;;12.60;;
52320;SDS011;38261;54.090;13.382;2023-09-07T05:10:56;15.33;;;11.67;;
52320;SDS011;38261;54.090;13.382;2023-09-07T05:12:19;17.13;;;12.00;;
52320;SDS011;38261;54.090;13.382;2023-09-07T05:13:42;17.77;;;12.80;;
52320;SDS011;38261;54.090;13.382;2023-09-07T05:15:05;17.30;;;10.67;;
52320;SDS011;38261;54.090;13.382;2023-09-07T05:16:29;15.47;;;11.83;;
52320;SDS011;38261;54.090;13.382;2023-09-07T05:17:52;15.43;;;11.20;;
52320;SDS011;38261;54.090;13.382;2023-09-07T05:19:15;12.97;;;11.30;;
52320;SDS011;38261;54.090;13.382;2023-09-07T05:20:37;19.33;;;12.67;;
52320;SDS011;38261;54.090;13.382;2023-09-07T05:22:00;17.00;;;11.87;;
52320;SDS011;38261;54.090;13.382;2023-09-07T05:23:22;15.53;;;11.33;;
52320;SDS011;38261;54.090;13.382;2023-09-07T05:24:46;17.70;;;11.77;;
52320;SDS011;38261;54.090;13.382;2023-09-07T05:26:09;19.23;;;11.90;;
52320;SDS011;38261;54.090;13.382;2023-09-07T05:27:31;16.00;;;12.50;;
52320;SDS011;38261;54.090;13.382;2023-09-07T05:28:54;15.97;;;12.10;;
52320;SDS011;38261;54.090;13.382;2023-09-07T05:30:17;17.57;;;12.30;;
52320;SDS011;38261;54.090;13.382;2023-09-07T05:31:39;18.67;;;12.20;;
52320;SDS011;38261;54.090;13.382;2023-09-07T05:33:02;16.00;;;11.00;;
52320;SDS011;38261;54.090;13.382;2023-09-07T05:34:25;16.10;;;11.30;;
52320;SDS011;38261;54.090;13.382;2023-09-07T05:35:47;16.17;;;11.00;;
52320;SDS011;38261;54.090;13.382;2023-09-07T05:37:10;15.60;;;11.20;;
52320;SDS011;38261;54.090;13.382;2023-09-07T05:38:32;18.80;;;11.93;;
52320;SDS011;38261;54.090;13.382;2023-09-07T05:39:55;15.53;;;10.90;;
52320;SDS011;38261;54.090;13.382;2023-09-07T05:41:18;14.33;;;11.07;;
52320;SDS011;38261;54.090;13.382;2023-09-07T05:42:40;18.80;;;12.40;;
52320;SDS011;38261;54.090;13.382;2023-09-07T05:44:03;15.87;;;12.03;;
52320;SDS011;38261;54.090;13.382;2023-09-07T05:45:26;13.93;;;11.37;;
52320;SDS011;38261;54.090;13.382;2023-09-07T05:46:48;19.20;;;11.87;;
52320;SDS011;38261;54.090;13.382;2023-09-07T05:48:11;17.60;;;11.50;;
52320;SDS011;38261;54.090;13.382;2023-09-07T05:49:33;15.40;;;11.27;;
52320;SDS011;38261;54.090;13.382;2023-09-07T05:50:56;12.80;;;10.77;;
52320;SDS011;38261;54.090;13.382;2023-09-07T05:52:18;17.87;;;12.47;;
52320;SDS011;38261;54.090;13.382;2023-09-07T05:53:41;17.00;;;12.23;;
52320;SDS011;38261;54.090;13.382;2023-09-07T05:55:04;15.53;;;11.17;;
52320;SDS011;38261;54.090;13.382;2023-09-07T05:56:27;17.30;;;11.60;;
52320;SDS011;38261;54.090;13.382;2023-09-07T05:57:53;15.57;;;10.60;;
52320;SDS011;38261;54.090;13.382;2023-09-07T05:59:16;19.30;;;10.23;;
52320;SDS011;38261;54.090;13.382;2023-09-07T06:00:38;15.70;;;10.37;;
52320;SDS011;38261;54.090;13.382;2023-09-07T06:02:01;16.87;;;10.83;;
52320;SDS011;38261;54.090;13.382;2023-09-07T06:03:25;11.70;;;10.47;;
52320;SDS011;38261;54.090;13.382;2023-09-07T06:04:47;15.50;;;10.20;;
52320;SDS011;38261;54.090;13.382;2023-09-07T06:06:09;16.20;;;11.53;;
52320;SDS011;38261;54.090;13.382;2023-09-07T06:07:32;15.20;;;11.73;;
52320;SDS011;38261;54.090;13.382;2023-09-07T06:08:54;13.93;;;10.80;;
52320;SDS011;38261;54.090;13.382;2023-09-07T06:10:16;13.20;;;10.93;;
52320;SDS011;38261;54.090;13.382;2023-09-07T06:11:39;13.63;;;10.83;;
52320;SDS011;38261;54.090;13.382;2023-09-07T06:13:01;15.20;;;11.50;;
52320;SDS011;38261;54.090;13.382;2023-09-07T06:14:25;15.10;;;11.10;;
52320;SDS011;38261;54.090;13.382;2023-09-07T06:15:47;15.10;;;11.20;;
52320;SDS011;38261;54.090;13.382;2023-09-07T06:17:09;15.47;;;10.83;;
52320;SDS011;38261;54.090;13.382;2023-09-07T06:18:31;14.83;;;11.53;;
52320;SDS011;38261;54.090;13.382;2023-09-07T06:19:54;13.87;;;10.33;;
52320;SDS011;38261;54.090;13.382;2023-09-07T06:21:18;14.83;;;10.93;;
52320;SDS011;38261;54.090;13.382;2023-09-07T06:22:40;14.17;;;11.30;;
52320;SDS011;38261;54.090;13.382;2023-09-07T06:24:02;14.80;;;11.43;;
52320;SDS011;38261;54.090;13.382;2023-09-07T06:25:24;17.60;;;10.20;;
52320;SDS011;38261;54.090;13.382;2023-09-07T06:26:48;17.23;;;11.37;;
52320;SDS011;38261;54.090;13.382;2023-09-07T06:28:11;16.27;;;10.27;;
52320;SDS011;38261;54.090;13.382;2023-09-07T06:29:34;15.40;;;10.77;;
52320;SDS011;38261;54.090;13.382;2023-09-07T06:30:56;14.10;;;10.40;;
52320;SDS011;38261;54.090;13.382;2023-09-07T06:32:18;19.53;;;11.60;;
52320;SDS011;38261;54.090;13.382;2023-09-07T06:33:40;15.70;;;11.20;;
52320;SDS011;38261;54.090;13.382;2023-09-07T06:35:03;15.30;;;11.23;;
52320;SDS011;38261;54.090;13.382;2023-09-07T06:36:25;14.17;;;10.97;;
52320;SDS011;38261;54.090;13.382;2023-09-07T06:38:06;15.53;;;11.20;;
52320;SDS011;38261;54.090;13.382;2023-09-07T06:39:28;17.10;;;10.80;;
52320;SDS011;38261;54.090;13.382;2023-09-07T06:40:50;14.53;;;10.40;;
52320;SDS011;38261;54.090;13.382;2023-09-07T06:42:13;14.10;;;9.87;;
52320;SDS011;38261;54.090;13.382;2023-09-07T06:43:37;13.40;;;10.27;;
52320;SDS011;38261;54.090;13.382;2023-09-07T06:44:59;14.37;;;9.80;;
52320;SDS011;38261;54.090;13.382;2023-09-07T06:46:21;13.17;;;9.80;;
52320;SDS011;38261;54.090;13.382;2023-09-07T06:47:44;11.33;;;8.90;;
52320;SDS011;38261;54.090;13.382;2023-09-07T06:49:06;14.77;;;9.90;;
52320;SDS011;38261;54.090;13.382;2023-09-07T06:50:30;15.13;;;9.70;;
52320;SDS011;38261;54.090;13.382;2023-09-07T06:51:52;11.47;;;8.77;;
52320;SDS011;38261;54.090;13.382;2023-09-07T06:53:14;10.30;;;8.50;;
52320;SDS011;38261;54.090;13.382;2023-09-07T06:54:36;12.70;;;9.70;;
52320;SDS011;38261;54.090;13.382;2023-09-07T06:56:01;10.50;;;8.53;;
52320;SDS011;38261;54.090;13.382;2023-09-07T06:57:24;11.60;;;9.10;;
52320;SDS011;38261;54.090;13.382;2023-09-07T06:58:47;10.40;;;8.47;;
52320;SDS011;38261;54.090;13.382;2023-09-07T07:00:09;10.83;;;8.40;;
52320;SDS011;38261;54.090;13.382;2023-09-07T07:01:33;11.87;;;7.80;;
52320;SDS011;38261;54.090;13.382;2023-09-07T07:02:57;13.83;;;8.40;;
52320;SDS011;38261;54.090;13.382;2023-09-07T07:04:20;10.60;;;7.97;;
52320;SDS011;38261;54.090;13.382;2023-09-07T07:05:42;11.43;;;8.60;;
52320;SDS011;38261;54.090;13.382;2023-09-07T07:07:05;10.63;;;8.20;;
52320;SDS011;38261;54.090;13.382;2023-09-07T07:08:27;14.63;;;8.70;;
52320;SDS011;38261;54.090;13.382;2023-09-07T07:09:50;11.37;;;8.07;;
52320;SDS011;38261;54.090;13.382;2023-09-07T07:11:14;13.00;;;8.60;;
52320;SDS011;38261;54.090;13.382;2023-09-07T07:12:36;11.60;;;9.50;;
52320;SDS011;38261;54.090;13.382;2023-09-07T07:13:59;9.57;;;8.33;;
52320;SDS011;38261;54.090;13.382;2023-09-07T07:15:22;9.70;;;7.43;;
52320;SDS011;38261;54.090;13.382;2023-09-07T07:16:44;14.37;;;8.43;;
52320;SDS011;38261;54.090;13.382;2023-09-07T07:18:06;12.20;;;8.73;;
52320;SDS011;38261;54.090;13.382;2023-09-07T07:19:32;11.83;;;8.20;;
52320;SDS011;38261;54.090;13.382;2023-09-07T07:20:54;8.73;;;7.27;;
52320;SDS011;38261;54.090;13.382;2023-09-07T07:22:16;11.30;;;8.10;;
52320;SDS011;38261;54.090;13.382;2023-09-07T07:23:42;12.57;;;8.57;;
52320;SDS011;38261;54.090;13.382;2023-09-07T07:25:04;8.77;;;7.63;;
52320;SDS011;38261;54.090;13.382;2023-09-07T07:26:27;12.37;;;8.03;;
52320;SDS011;38261;54.090;13.382;2023-09-07T07:27:49;12.07;;;7.97;;
52320;SDS011;38261;54.090;13.382;2023-09-07T07:29:11;11.70;;;7.90;;
52320;SDS011;38261;54.090;13.382;2023-09-07T07:30:37;15.43;;;8.50;;
52320;SDS011;38261;54.090;13.382;2023-09-07T07:32:04;14.00;;;8.60;;
52320;SDS011;38261;54.090;13.382;2023-09-07T07:33:26;10.33;;;8.57;;
52320;SDS011;38261;54.090;13.382;2023-09-07T07:34:48;13.57;;;8.80;;
52320;SDS011;38261;54.090;13.382;2023-09-07T07:36:11;12.27;;;7.50;;
52320;SDS011;38261;54.090;13.382;2023-09-07T07:37:33;9.10;;;7.33;;
52320;SDS011;38261;54.090;13.382;2023-09-07T07:38:56;15.47;;;7.80;;
52320;SDS011;38261;54.090;13.382;2023-09-07T07:40:18;8.87;;;7.10;;
52320;SDS011;38261;54.090;13.382;2023-09-07T07:41:40;11.63;;;7.80;;
52320;SDS011;38261;54.090;13.382;2023-09-07T07:43:04;14.53;;;8.70;;
52320;SDS011;38261;54.090;13.382;2023-09-07T07:44:27;11.57;;;7.77;;
52320;SDS011;38261;54.090;13.382;2023-09-07T07:45:51;14.33;;;7.37;;
52320;SDS011;38261;54.090;13.382;2023-09-07T07:47:15;12.10;;;8.53;;
52320;SDS011;38261;54.090;13.382;2023-09-07T07:48:38;10.80;;;6.93;;
52320;SDS011;38261;54.090;13.382;2023-09-07T07:50:00;13.60;;;8.60;;
52320;SDS011;38261;54.090;13.382;2023-09-07T07:51:22;12.67;;;8.60;;
52320;SDS011;38261;54.090;13.382;2023-09-07T07:52:45;13.00;;;8.20;;
52320;SDS011;38261;54.090;13.382;2023-09-07T07:54:07;12.60;;;8.30;;
52320;SDS011;38261;54.090;13.382;2023-09-07T07:55:29;11.13;;;8.33;;
52320;SDS011;38261;54.090;13.382;2023-09-07T07:56:52;11.30;;;8.20;;
52320;SDS011;38261;54.090;13.382;2023-09-07T07:58:14;13.13;;;8.17;;
52320;SDS011;38261;54.090;13.382;2023-09-07T07:59:36;15.90;;;7.37;;
52320;SDS011;38261;54.090;13.382;2023-09-07T08:00:59;8.97;;;7.80;;